KLBX 230754Z 2308/2406 00000KT 4SM BR FEW005
TEMPO 2308/2312 1/2SM FG
FM231400 07005KT P6SM FEW035
FM231900 14010KT P6SM FEW050
FM240300 VRB03KT P6SM FEW050
From batch tds/tafs/production/2022/9/23/h07_m59_tafs.cache.xml
Issued (9 days ago)
Forecasts
2308/2314 VRB00KT 4.0SM FEW500

---
wx_string: BR
fcst_time_to: '2022-09-23T14:00:00Z'
sky_condition:
- sky_cover: FEW
  cloud_base_ft_agl: '500'
wind_speed_kt: '0'
fcst_time_from: '2022-09-23T08:00:00Z'
wind_dir_degrees: '0'
visibility_statute_mi: '4.0'

TEMPO 2308/2312

---
wx_string: FG
fcst_time_to: '2022-09-23T12:00:00Z'
fcst_time_from: '2022-09-23T08:00:00Z'
change_indicator: TEMPO
visibility_statute_mi: '0.5'

FM231400 7005KT P6SM FEW3500

---
fcst_time_to: '2022-09-23T19:00:00Z'
sky_condition:
- sky_cover: FEW
  cloud_base_ft_agl: '3500'
wind_speed_kt: '5'
fcst_time_from: '2022-09-23T14:00:00Z'
change_indicator: FM
wind_dir_degrees: '70'
visibility_statute_mi: '6.21'

FM231900 14010KT P6SM FEW5000

---
fcst_time_to: '2022-09-24T03:00:00Z'
sky_condition:
- sky_cover: FEW
  cloud_base_ft_agl: '5000'
wind_speed_kt: '10'
fcst_time_from: '2022-09-23T19:00:00Z'
change_indicator: FM
wind_dir_degrees: '140'
visibility_statute_mi: '6.21'

FM240300 VRB03KT P6SM FEW5000

---
fcst_time_to: '2022-09-24T06:00:00Z'
sky_condition:
- sky_cover: FEW
  cloud_base_ft_agl: '5000'
wind_speed_kt: '3'
fcst_time_from: '2022-09-24T03:00:00Z'
change_indicator: FM
wind_dir_degrees: '0'
visibility_statute_mi: '6.21'

talk